Tiempo atmosférico en la estación meteorológica de Arcos de Jalón, Soria (863 m.)



Fecha
DESCASC
Temp. máxima en grados centígrados (hora)
DESCASC
Temp. mínima en grados centígrados (hora)
DESCASC
Temp. media en grados centígrados
DESCASC
Racha de viento máxima en m/sg (hora)
DESCASC
Velocidad máxima media en intervalos de 10 minutos(hora)
DESCASC
Precipitaciones diarias en mm
DESCASC
Precipitaciones de 00:00 a 06:00 en mm
DESCASC
Precipitaciones de 06:00 a 12:00 en mm
DESCASC
Precipitaciones de 12:00 a 18:00 en mm
DESCASC
Precipitaciones de 18:00 a 24:00 en mm
DESCASC
18-01-2018 13.7 (16:00) -1.7 (08:30) 6 5.28 (21:30) 4.17 (21:50) 0 0 0 0 0
17-01-2018 11.2 (16:40) 0.5 (23:40) 5.8 12.22 (06:50) 7.78 (08:30) 0 0 0 0 0
16-01-2018 11.6 (14:40) 1.7 (00:30) 6.7 12.78 (14:30) 8.61 (14:20) 0 0 0 0 0
15-01-2018 5.4 (13:50) -2.3 (08:50) 1.6 7.78 (18:40) 6.11 (19:40) 0 0 0 0 0
14-01-2018 4.7 (16:10) 0.7 (00:00) 2.7 9.44 (11:50) 6.11 (00:40) 0 0 0 0 0
13-01-2018 6.1 (14:10) -0.4 (00:00) 2.8 10.28 (14:50) 7.5 (14:50) 2.6 0 0 0.4 2.2
12-01-2018 6.2 (15:40) -0.6 (-00:0) 2.8 10.56 (01:50) 6.39 (00:20) 0 0 0 0 0
11-01-2018 5 (15:10) 1.6 (00:00) 3.3 15 (07:40) 10.56 (07:40) 0 0 0 0 0
10-01-2018 5.6 (12:40) 2.1 (00:00) 3.8 15 (16:10) 10.83 (20:30) 0 0 0 0 0
09-01-2018 2.4 (14:30) -5.7 (-00:0) -1.6 16.39 (20:20) 11.11 (20:30) 0 0 0 0 0
08-01-2018 2.1 (16:10) -7.2 (-00:0) -2.5 6.94 (19:10) 5 (19:10) 3 0 0.2 2.6 0.2
07-01-2018 3.1 (13:10) -4.2 (-00:0) -0.5 3.61 (19:50) 2.78 (22:40) 18.2 0.4 3.6 14 0.2
06-01-2018 7.3 (00:00) 0.1 (00:00) 3.7 9.72 (01:20) 6.11 (01:20) 17.2 9 2.2 4.2 1.8
05-01-2018 10.7 (13:20) 7.1 (00:00) 8.9 17.78 (12:10) 11.39 (12:10) 1 0 0 0 1
04-01-2018 12.4 (14:50) 8.4 (23:59) 10.4 12.78 (13:30) 8.33 (00:20) 0 0 0 0 0
03-01-2018 13.6 (15:50) 8 (00:00) 10.8 14.72 (23:30) 10.83 (23:40) 0 0 0 0 0
02-01-2018 12.6 (13:30) 6.6 (00:00) 9.6 19.44 (11:30) 14.72 (11:40) 0 0 0 0 0
01-01-2018 10.5 (15:10) 0.5 (00:00) 5.5 17.22 (17:30) 11.94 (17:20) 0 0 0 0 0
31-12-2017 11.1 (13:40) 3.3 (00:00) 7.2 22.5 (18:20) 13.61 (14:20) 1.8 0 0 0 1.8
30-12-2017 13.9 (15:10) 6.3 (00:00) 10.1 12.5 (11:40) 8.33 (11:40) 0 0 0 0 0
29-12-2017 13.4 (14:30) 4 (00:00) 8.7 15.28 (11:50) 11.11 (11:50) 0 0 0 0 0
28-12-2017 12.5 (14:50) 3.6 (00:00) 8 20.28 (15:00) 14.44 (15:00) 0 0 0 0 0
27-12-2017 6.9 (16:20) 3.3 (00:00) 5.1 23.89 (09:30) 15.28 (07:40) 7.4 7.2 0.2 0 0
26-12-2017 6.8 (01:50) 1.7 (00:00) 4.3 19.72 (23:50) 13.61 (23:00) 1 0 0 0 1
25-12-2017 9.6 (15:20) -0.9 (-00:0) 4.4 13.33 (21:30) 8.61 (21:30) 0 0 0 0 0
24-12-2017 15.1 (16:00) -2.2 (-00:0) 6.5 5 (21:20) 3.61 (22:00) 0 0 0 0 0

Gráficas

Temp. máximas Temp. mínimas Temp. medias Precipitaciones Rachas de viento máximas Velocidades máximas media en intervalos de 10 minutos

Datos horarios

Fecha y hora oficial Temperatura (ºC) Velocidad del viento (km/h) Dirección del viento Racha (km/h) Dirección de racha Precipitación (mm) Presión (hPa) Tendencia (hPa) Humedad (%)
2018-01-22 23:00:00 3.7 8 Sudoeste 18 Sudoeste 0 -- -- 87
2018-01-22 22:00:00 3.9 6 Sudoeste 15 Sudoeste 0 -- -- 87
2018-01-22 21:00:00 3.9 6 Oeste 10 Oeste 0 -- -- 88
2018-01-22 20:00:00 4.8 7 Sudoeste 13 Sudoeste 0 -- -- 84
2018-01-22 19:00:00 5.3 6 Sudoeste 21 Oeste 0 -- -- 80
2018-01-22 18:00:00 7.7 13 Oeste 23 Oeste 0 -- -- 75
2018-01-22 17:00:00 9.7 15 Oeste 27 Oeste 0 -- -- 69
2018-01-22 16:00:00 11.2 10 Sudoeste 27 Sudoeste 0 -- -- 65
2018-01-22 15:00:00 11.6 12 Oeste 22 Sudoeste 0 -- -- 64
2018-01-22 14:00:00 10.6 16 Sudoeste 24 Sudoeste 0 -- -- 68
2018-01-22 13:00:00 9.1 13 Sudoeste 23 Oeste 0 -- -- 75
2018-01-22 12:00:00 7.8 10 Oeste 27 Sudoeste 0 -- -- 80
2018-01-22 11:00:00 6.5 18 Sudoeste 27 Sudoeste 0 -- -- 85
2018-01-22 10:00:00 5.8 8 Sudoeste 17 Sudoeste 0 -- -- 87
2018-01-22 09:00:00 4.4 7 Sudoeste 17 Sudoeste 0 -- -- 90
2018-01-22 08:00:00 5 6 Oeste 14 Sudoeste 0 -- -- 88
2018-01-22 07:00:00 5.4 3 Sudoeste 7 Oeste 0 -- -- 87
2018-01-22 06:00:00 6.3 4 Sudoeste 6 Sudoeste 0 -- -- 87
2018-01-22 05:00:00 6.8 0 Calma 5 Sur 0 -- -- 86
2018-01-22 04:00:00 6.8 5 Sudoeste 18 Sudoeste 0 -- -- 86
2018-01-22 03:00:00 7.3 13 Sudoeste 19 Oeste 0 -- -- 85
2018-01-22 02:00:00 7.4 10 Oeste 15 Oeste 0 -- -- 85
2018-01-22 01:00:00 7.2 6 Sudoeste 18 Sudoeste 0 -- -- 84
2018-01-22 00:00:00 7.6 13 Sudoeste 17 Sudoeste 0 -- -- 83
2018-01-21 23:00:00 7.6 7 Sudoeste 12 Sudoeste 0 -- -- 85
2018-01-21 22:00:00 7.6 4 Sudoeste 18 Sudoeste 0 -- -- 85
2018-01-21 21:00:00 7.5 16 Sudoeste 28 Sudoeste 0 -- -- 86
2018-01-21 20:00:00 7.8 20 Sudoeste 26 Sudoeste 0 -- -- 85
2018-01-21 19:00:00 7.8 15 Sudoeste 29 Sudoeste 0 -- -- 84
2018-01-21 18:00:00 7.9 24 Sudoeste 40 Sudoeste 0 -- -- 82
2018-01-21 17:00:00 10 20 Sudoeste 29 Sudoeste 0 -- -- 73
2018-01-21 16:00:00 11.7 21 Sudoeste 33 Sudoeste 0 -- -- 68
2018-01-21 15:00:00 13 13 Oeste 27 Sudoeste 0 -- -- 66
2018-01-21 14:00:00 12.3 12 Oeste 37 Sudoeste 0 -- -- 68
2018-01-21 13:00:00 12.2 24 Sudoeste 32 Sudoeste 0 -- -- 69
2018-01-21 12:00:00 10.4 16 Oeste 36 Oeste 0 -- -- 76
2018-01-21 11:00:00 8.9 27 Sudoeste 42 Oeste 0 -- -- 83
2018-01-21 10:00:00 6.7 20 Sudoeste 45 Sudoeste 0 -- -- 89
2018-01-21 09:00:00 6.7 25 Sudoeste 36 Sudoeste 0 -- -- 88
2018-01-21 08:00:00 7.1 12 Sudoeste 30 Sudoeste 0 -- -- 87
2018-01-21 07:00:00 7.6 21 Sudoeste 34 Sudoeste 0 -- -- 84
2018-01-21 06:00:00 7.9 19 Sudoeste 29 Sudoeste 0 -- -- 83
2018-01-21 05:00:00 8 17 Sudoeste 41 Sudoeste 0 -- -- 81
2018-01-21 04:00:00 8.1 19 Sudoeste 44 Sudoeste 0 -- -- 81
2018-01-21 03:00:00 8.2 25 Sudoeste 49 Sudoeste 0 -- -- 80
2018-01-21 02:00:00 7.9 20 Sudoeste 38 Sudoeste 0 -- -- 81
2018-01-21 01:00:00 7.6 21 Sudoeste 30 Oeste 0 -- -- 82
2018-01-21 00:00:00 7.3 15 Sudoeste 28 Oeste 0 -- -- 79
2018-01-20 23:00:00 7.3 13 Sudoeste 25 Sudoeste 0 -- -- 77
2018-01-20 22:00:00 6.9 10 Sudoeste 23 Sur 0 -- -- 74
2018-01-20 21:00:00 5.1 5 Sudoeste 16 Sur 0 -- -- 76
2018-01-20 20:00:00 6.7 11 Sudoeste 20 Sudoeste 0 -- -- 71
2018-01-20 19:00:00 8 2 Norte 29 Sudoeste 0 -- -- 64
2018-01-20 18:00:00 10.2 20 Sudoeste 51 Sudoeste 0 -- -- 55
2018-01-20 17:00:00 11.8 28 Sudoeste 47 Sudoeste 0 -- -- 46
2018-01-20 16:00:00 12.2 32 Oeste 50 Oeste 0 -- -- 45
2018-01-20 15:00:00 12.3 34 Sudoeste 52 Sudoeste 0 -- -- 41
2018-01-20 14:00:00 11.7 31 Sudoeste 44 Oeste 0 -- -- 45
2018-01-20 13:00:00 11.1 17 Sudoeste 31 Sudoeste 0 -- -- 47
2018-01-20 12:00:00 9 3 Nordeste 11 Norte 0 -- -- 68
2018-01-20 11:00:00 7.3 0 Calma 5 Nordeste 0 -- -- 74
2018-01-20 10:00:00 3.6 0 Calma 5 Este 0 -- -- 89
2018-01-20 09:00:00 0.3 0 Calma 4 Oeste 0 -- -- 92
2018-01-20 08:00:00 0.4 0 Calma 9 Sur 0 -- -- 91
2018-01-20 07:00:00 1 5 Sudoeste 8 Sudoeste 0 -- -- 92
2018-01-20 06:00:00 1.1 6 Sudoeste 12 Sudoeste 0 -- -- 91
2018-01-20 05:00:00 1.7 8 Oeste 14 Sudoeste 0 -- -- 90
2018-01-20 04:00:00 1.7 11 Sudoeste 20 Oeste 0 -- -- 89
2018-01-20 03:00:00 2.5 13 Oeste 18 Oeste 0 -- -- 89
2018-01-20 02:00:00 2.4 8 Sudoeste 15 Sudoeste 0 -- -- 85
2018-01-20 01:00:00 4 5 Sudoeste 10 Sur 0 -- -- 85
2018-01-20 00:00:00 3.9 6 Sudoeste 14 Sudoeste 0 -- -- 85
2018-01-19 23:00:00 2.9 9 Sudoeste 15 Sudoeste 0 -- -- 86
2018-01-19 22:00:00 3.7 4 Sudoeste 8 Sudoeste 0 -- -- 80
2018-01-19 21:00:00 6.6 9 Oeste 25 Oeste 0 -- -- 73
2018-01-19 20:00:00 6.7 7 Noroeste 15 Noroeste 0 -- -- 75
2018-01-19 19:00:00 7.3 2 Sur 13 Oeste 0 -- -- 72
2018-01-19 18:00:00 10.2 8 Oeste 21 Sudoeste 0 -- -- 65
2018-01-19 17:00:00 12.3 12 Oeste 27 Oeste 0 -- -- 57
2018-01-19 16:00:00 13 11 Sudoeste 18 Sudoeste 0 -- -- 53
2018-01-19 15:00:00 12.7 9 Sudoeste 17 Sudoeste 0 -- -- 51
2018-01-19 14:00:00 11.6 9 Oeste 22 Noroeste 0 -- -- 58
2018-01-19 13:00:00 10.8 9 Noroeste 17 Noroeste 0 -- -- 62
2018-01-19 12:00:00 9.7 3 Sur 10 Sudoeste 0 -- -- 64
2018-01-19 11:00:00 6.1 3 Sudoeste 13 Oeste 0 -- -- 79
2018-01-19 10:00:00 1.8 10 Oeste 12 Sudoeste 0 -- -- 90
2018-01-19 09:00:00 -1.1 4 Sudoeste 9 Oeste 0 -- -- 90
2018-01-19 08:00:00 -0.9 5 Sudoeste 14 Sudoeste 0 -- -- 89
2018-01-19 07:00:00 0.2 8 Sudoeste 12 Sudoeste 0 -- -- 89
2018-01-19 06:00:00 0.1 0 Calma 10 Sudoeste 0 -- -- 87
2018-01-19 05:00:00 0.9 8 Sudoeste 13 Sudoeste 0 -- -- 88
2018-01-19 04:00:00 0.9 6 Sur 19 Oeste 0 -- -- 86
2018-01-19 03:00:00 1 9 Sudoeste 14 Sudoeste 0 -- -- 85
2018-01-19 02:00:00 1.4 11 Sudoeste 13 Sudoeste 0 -- -- 86
2018-01-19 01:00:00 1.3 10 Sudoeste 14 Sudoeste 0 -- -- 84
2018-01-19 00:00:00 3.2 8 Sudoeste 17 Oeste 0 -- -- 75
2018-01-18 23:00:00 3 10 Sudoeste 18 Oeste 0 -- -- 77
2018-01-18 22:00:00 3.6 14 Sudoeste 19 Oeste 0 -- -- 74
2018-01-18 21:00:00 4 12 Sudoeste 17 Sudoeste 0 -- -- 73
2018-01-18 20:00:00 4.7 14 Sudoeste 16 Sudoeste 0 -- -- 71
2018-01-18 19:00:00 5.6 5 Sudoeste 13 Sudoeste 0 -- -- 67
2018-01-18 18:00:00 10.6 2 Sur 12 Noroeste 0 -- -- 51
2018-01-18 17:00:00 13.2 4 Noroeste 10 Noroeste 0 -- -- 40
2018-01-18 16:00:00 13.7 3 Este 6 Este 0 -- -- 42
2018-01-18 15:00:00 12.4 2 Sudeste 7 Nordeste 0 -- -- 53
2018-01-18 14:00:00 10.1 4 Este 9 Nordeste 0 -- -- 58
2018-01-18 13:00:00 7.4 4 Norte 10 Nordeste 0 -- -- 69
2018-01-18 12:00:00 5.1 6 Nordeste 9 Nordeste 0 -- -- 73
2018-01-18 11:00:00 2.8 6 Nordeste 10 Nordeste 0 -- -- 79
2018-01-18 10:00:00 2.2 5 Sudoeste 17 Oeste 0 -- -- 87
2018-01-18 09:00:00 -0.9 11 Sudoeste 14 Sudoeste 0 -- -- 92
2018-01-18 08:00:00 -0.9 9 Sudoeste 13 Sudoeste 0 -- -- 90
2018-01-18 07:00:00 -0.7 11 Sudoeste 15 Sudoeste 0 -- -- 89
2018-01-18 06:00:00 -0.4 12 Oeste 15 Oeste 0 -- -- 88
2018-01-18 05:00:00 -0.5 13 Sudoeste 16 Oeste 0 -- -- 87
2018-01-18 04:00:00 -0.5 11 Sudoeste 15 Sudoeste 0 -- -- 87
2018-01-18 03:00:00 -0.2 9 Sudoeste 16 Sudoeste 0 -- -- 86
2018-01-18 02:00:00 -0.3 8 Sudoeste 14 Sudoeste 0 -- -- 87
2018-01-18 01:00:00 -0.2 9 Sudoeste 14 Sudoeste 0 -- -- 86
2018-01-18 00:00:00 0.6 9 Oeste 14 Oeste 0 -- -- 85
2018-01-17 23:00:00 0.9 10 Sudoeste 14 Sudoeste 0 -- -- 84
2018-01-17 22:00:00 1.3 5 Sudoeste 9 Sudoeste 0 -- -- 82
2018-01-17 21:00:00 2.7 8 Sur 13 Sur 0 -- -- 79
2018-01-17 20:00:00 3.8 4 Sur 6 Sudoeste 0 -- -- 77
2018-01-17 19:00:00 6.2 6 Noroeste 10 Oeste 0 -- -- 68
2018-01-17 18:00:00 8.8 8 Oeste 20 Sudoeste 0 -- -- 61
2018-01-17 17:00:00 10.4 13 Sudoeste 27 Oeste 0 -- -- 55
2018-01-17 16:00:00 10.8 17 Oeste 29 Sudoeste 0 -- -- 56
2018-01-17 15:00:00 10.9 17 Oeste 27 Oeste 0 -- -- 57
2018-01-17 14:00:00 10.7 15 Oeste 34 Oeste 0 -- -- 59
2018-01-17 13:00:00 10.1 22 Oeste 37 Oeste 0 -- -- 66
2018-01-17 12:00:00 9.8 23 Oeste 39 Oeste 0 -- -- 69
2018-01-17 11:00:00 9.1 22 Oeste 43 Oeste 0 -- -- 72
2018-01-17 10:00:00 8.3 21 Oeste 38 Sudoeste 0 -- -- 75
2018-01-17 09:00:00 7.6 21 Oeste 41 Oeste 0 -- -- 78
2018-01-17 08:00:00 7.9 25 Oeste 40 Oeste 0 -- -- 78
2018-01-17 07:00:00 8.3 26 Oeste 44 Oeste 0 -- -- 77
2018-01-17 06:00:00 7.6 13 Sudoeste 28 Sudoeste 0 -- -- 81
2018-01-17 05:00:00 7.6 22 Sudoeste 35 Sudoeste 0 -- -- 80
2018-01-17 04:00:00 7 14 Sudoeste 39 Sudoeste 0 -- -- 82
2018-01-17 03:00:00 6.7 13 Sudoeste 30 Sudoeste 0 -- -- 83
2018-01-17 02:00:00 7.5 26 Sudoeste 32 Sudoeste 0 -- -- 82
2018-01-17 01:00:00 6.2 9 Sudoeste 22 Sudoeste 0 -- -- 87
2018-01-17 00:00:00 6.5 12 Sudoeste 29 Sudoeste 0 -- -- 86
2018-01-16 23:00:00 5.7 10 Sudoeste 21 Sudoeste 0 -- -- 89
2018-01-16 22:00:00 4.5 15 Sudoeste 19 Oeste 0 -- -- 89
2018-01-16 21:00:00 5.2 11 Sudoeste 17 Sudoeste 0 -- -- 86
2018-01-16 20:00:00 6.3 12 Sur 17 Sudoeste 0 -- -- 84
2018-01-16 19:00:00 7.1 8 Sudoeste 23 Sudoeste 0 -- -- 83
2018-01-16 18:00:00 8.6 12 Sudoeste 40 Sudoeste 0 -- -- 79
2018-01-16 17:00:00 10.2 21 Sudoeste 39 Sudoeste 0 -- -- 73
2018-01-16 16:00:00 10.7 27 Sudoeste 40 Sudoeste 0 -- -- 69
2018-01-16 15:00:00 11.5 27 Sudoeste 46 Sudoeste 0 -- -- 67
2018-01-16 14:00:00 10.8 28 Sudoeste 45 Sudoeste 0 -- -- 73
2018-01-16 13:00:00 9.1 17 Sudoeste 31 Sudoeste 0 -- -- 74
2018-01-16 12:00:00 7.8 14 Sudoeste 30 Sudoeste 0 -- -- 79
2018-01-16 11:00:00 6.5 10 Sudoeste 18 Sudoeste 0 -- -- 83
2018-01-16 10:00:00 5.1 6 Sudoeste 16 Sudoeste 0 -- -- 80
2018-01-16 09:00:00 4 8 Sudoeste 21 Sudoeste 0 -- -- 80
2018-01-16 08:00:00 3.8 14 Sudoeste 23 Sudoeste 0 -- -- 80
2018-01-16 07:00:00 3.4 19 Sudoeste 27 Sudoeste 0 -- -- 76
2018-01-16 06:00:00 3.4 21 Sudoeste 32 Sudoeste 0 -- -- 77
2018-01-16 05:00:00 3.5 18 Sudoeste 28 Sur 0 -- -- 77
2018-01-16 04:00:00 3.3 11 Sudoeste 25 Sudoeste 0 -- -- 81
2018-01-16 03:00:00 3.1 18 Sudoeste 25 Sudoeste 0 -- -- 82
2018-01-16 02:00:00 2.6 12 Sudoeste 21 Oeste 0 -- -- 86
2018-01-16 01:00:00 2.3 16 Oeste 22 Oeste 0 -- -- 86
2018-01-16 00:00:00 2.3 10 Sudoeste 20 Sudoeste 0 -- -- 85
2018-01-15 23:00:00 2.9 10 Sudoeste 19 Oeste 0 -- -- 83
2018-01-15 22:00:00 3.4 7 Sudoeste 18 Oeste 0 -- -- 81
2018-01-15 21:00:00 3.7 9 Sudoeste 23 Sudoeste 0 -- -- 80
2018-01-15 20:00:00 4.6 11 Sudoeste 28 Sudoeste 0 -- -- 76
2018-01-15 19:00:00 5.3 18 Sudoeste 28 Sudoeste 0 -- -- 72
2018-01-15 18:00:00 4.8 8 Sudoeste 20 Sudoeste 0 -- -- 78
2018-01-15 17:00:00 5.2 12 Sudoeste 19 Oeste 0 -- -- 75
2018-01-15 16:00:00 5.2 13 Sudoeste 23 Sudoeste 0 -- -- 75
2018-01-15 15:00:00 4.8 18 Sudoeste 24 Sudoeste 0 -- -- 74
2018-01-15 14:00:00 5.2 18 Sudoeste 23 Sudoeste 0 -- -- 70
2018-01-15 13:00:00 4.5 11 Sudoeste 17 Sudoeste 0 -- -- 76
2018-01-15 12:00:00 3.1 8 Sudoeste 17 Sudoeste 0 -- -- 81
2018-01-15 11:00:00 1.1 7 Sudoeste 14 Sudoeste 0 -- -- 87
2018-01-15 10:00:00 -0.8 2 Sur 5 Sur 0 -- -- 91
2018-01-15 09:00:00 -2.2 3 Sudoeste 7 Sudoeste 0 -- -- 92
2018-01-15 08:00:00 -1.6 4 Oeste 9 Oeste 0 -- -- 92
2018-01-15 07:00:00 -1.2 2 Sudoeste 6 Sudoeste 0 -- -- 92
2018-01-15 06:00:00 -0.1 3 Sur 15 Oeste 0 -- -- 91
2018-01-15 05:00:00 -0.9 4 Oeste 8 Sudoeste 0 -- -- 94
2018-01-15 04:00:00 -1.5 2 Sudoeste 7 Sudoeste 0 -- -- 90
2018-01-15 03:00:00 -0.6 6 Oeste 15 Oeste 0 -- -- 89
2018-01-15 02:00:00 -0.4 4 Sudoeste 14 Sudoeste 0 -- -- 88
2018-01-15 01:00:00 -0.1 4 Sudoeste 14 Sudoeste 0 -- -- 88
2018-01-15 00:00:00 0.7 3 Oeste 11 Sudoeste 0 -- -- 86
2018-01-14 23:00:00 1 5 Sur 9 Sudoeste 0 -- -- 86
2018-01-14 22:00:00 1.4 2 Sudoeste 9 Sudoeste 0 -- -- 86
2018-01-14 21:00:00 2.1 4 Sur 12 Sudoeste 0 -- -- 84
2018-01-14 20:00:00 2.3 8 Sudoeste 18 Sudoeste 0 -- -- 84
2018-01-14 19:00:00 2.6 3 Sur 12 Oeste 0 -- -- 84
2018-01-14 18:00:00 2.9 8 Oeste 18 Oeste 0 -- -- 84
2018-01-14 17:00:00 4 13 Oeste 21 Oeste 0 -- -- 79
2018-01-14 16:00:00 4.3 11 Oeste 19 Sudoeste 0 -- -- 74
2018-01-14 15:00:00 4.1 11 Sudoeste 31 Sudoeste 0 -- -- 78
2018-01-14 14:00:00 3.5 20 Sudoeste 29 Sudoeste 0 -- -- 82
2018-01-14 13:00:00 3.3 15 Sudoeste 28 Sudoeste 0 -- -- 82
2018-01-14 12:00:00 3.7 17 Sudoeste 34 Sudoeste 0 -- -- 83
2018-01-14 11:00:00 3.4 14 Sudoeste 23 Oeste 0 -- -- 85
2018-01-14 10:00:00 2.6 18 Sudoeste 26 Sudoeste 0 -- -- 86
2018-01-14 09:00:00 1 15 Sudoeste 20 Sudoeste 0 -- -- 91
2018-01-14 08:00:00 1.3 12 Sudoeste 19 Sudoeste 0 -- -- 91
2018-01-14 07:00:00 1.4 10 Sudoeste 18 Sudoeste 0 -- -- 91
2018-01-14 06:00:00 1.1 14 Sudoeste 21 Sudoeste 0 -- -- 91
2018-01-14 05:00:00 1.3 9 Sudoeste 23 Sudoeste 0 -- -- 92
2018-01-14 04:00:00 1.3 15 Sudoeste 31 Sudoeste 0 -- -- 92
2018-01-14 03:00:00 1.3 12 Sur 24 Sur 0 -- -- 90
2018-01-14 02:00:00 1.8 10 Sur 22 Sudoeste 0 -- -- 89
2018-01-14 01:00:00 1.9 13 Sudoeste 33 Sudoeste 0 -- -- 88
2018-01-14 00:00:00 1.8 22 Sudoeste 36 Sur 0 -- -- 90
2018-01-13 23:00:00 2.1 23 Sudoeste 36 Sur 0.2 -- -- 89
2018-01-13 22:00:00 2 19 Sudoeste 30 Sudoeste 0 -- -- 89
2018-01-13 21:00:00 2.1 19 Sudoeste 27 Sudoeste 0 -- -- 90
2018-01-13 20:00:00 1.3 13 Sudoeste 16 Sudoeste 1 -- -- 93
2018-01-13 19:00:00 1.6 12 Sudoeste 25 Sudoeste 1 -- -- 90
2018-01-13 18:00:00 2.8 14 Sudoeste 30 Sudoeste 0 -- -- 86
2018-01-13 17:00:00 3.1 16 Sudoeste 30 Sur 0.4 -- -- 84
2018-01-13 16:00:00 4.7 18 Sur 33 Sur 0 -- -- 73
2018-01-13 15:00:00 5.7 24 Sudoeste 37 Sudoeste 0 -- -- 67
2018-01-13 14:00:00 5.8 18 Sur 36 Sur 0 -- -- 66
2018-01-13 13:00:00 5.3 10 Sur 32 Sudoeste 0 -- -- 68
2018-01-13 12:00:00 4.7 19 Sudoeste 32 Sudoeste 0 -- -- 68
2018-01-13 11:00:00 3.9 14 Sur 31 Sur 0 -- -- 70
2018-01-13 10:00:00 2.7 14 Sur 29 Sudoeste 0 -- -- 75
2018-01-13 09:00:00 0.5 2 Nordeste 30 Sur 0 -- -- 83
2018-01-13 08:00:00 2.4 21 Sudoeste 32 Sur 0 -- -- 76
2018-01-13 07:00:00 0.3 2 Este 14 Sur 0 -- -- 85
2018-01-13 06:00:00 -0.1 3 Nordeste 17 Sudoeste 0 -- -- 87
2018-01-13 05:00:00 2.3 11 Sudoeste 27 Sudoeste 0 -- -- 79
2018-01-13 04:00:00 2.1 18 Sudoeste 26 Sur 0 -- -- 81
2018-01-13 03:00:00 1.2 7 Sudoeste 12 Sudoeste 0 -- -- 85
2018-01-13 02:00:00 1 6 Sudoeste 19 Sudoeste 0 -- -- 86
2018-01-13 01:00:00 0.7 12 Sudoeste 18 Sudoeste 0 -- -- 87
2018-01-13 00:00:00 -0.1 4 Sudoeste 12 Sudoeste 0 -- -- 88
2018-01-12 23:00:00 0.1 0 Calma 9 Oeste 0 -- -- 87
2018-01-12 22:00:00 0.8 9 Oeste 12 Sudoeste 0 -- -- 86
2018-01-12 21:00:00 1.5 6 Sudoeste 13 Sudoeste 0 -- -- 86
2018-01-12 20:00:00 1.5 6 Sudoeste 10 Sudoeste 0 -- -- 85
2018-01-12 19:00:00 1.8 6 Sudoeste 13 Oeste 0 -- -- 83
2018-01-12 18:00:00 3.3 10 Oeste 13 Oeste 0 -- -- 79
2018-01-12 17:00:00 4.8 9 Sudoeste 18 Sudoeste 0 -- -- 74
2018-01-12 16:00:00 5.9 15 Oeste 24 Sudoeste 0 -- -- 70
2018-01-12 15:00:00 6.1 14 Sudoeste 24 Sudoeste 0 -- -- 69
2018-01-12 14:00:00 5.6 17 Sudoeste 28 Sudoeste 0 -- -- 71
2018-01-12 13:00:00 5 18 Sudoeste 25 Sudoeste 0 -- -- 74
2018-01-12 12:00:00 3.5 19 Sudoeste 26 Sudoeste 0 -- -- 79
2018-01-12 11:00:00 3.6 16 Sudoeste 23 Sudoeste 0 -- -- 79
2018-01-12 10:00:00 1.9 4 Sur 8 Sur 0 -- -- 87
2018-01-12 09:00:00 -0.6 2 Sudeste 8 Sur 0 -- -- 89
2018-01-12 08:00:00 -0.3 6 Sur 9 Oeste 0 -- -- 89
2018-01-12 07:00:00 -0.3 6 Oeste 10 Sudoeste 0 -- -- 89
2018-01-12 06:00:00 -0.1 4 Sudoeste 9 Sudoeste 0 -- -- 89
2018-01-12 05:00:00 0.4 4 Sudoeste 8 Oeste 0 -- -- 86
2018-01-12 04:00:00 1.6 5 Sudoeste 15 Oeste 0 -- -- 83
2018-01-12 03:00:00 1.7 6 Sudoeste 19 Oeste 0 -- -- 85
2018-01-12 02:00:00 2.4 19 Sudoeste 38 Sudoeste 0 -- -- 81
2018-01-12 01:00:00 2.5 14 Oeste 35 Oeste 0 -- -- 80
2018-01-12 00:00:00 3.2 21 Oeste 33 Sudoeste 0 -- -- 78
2018-01-11 23:00:00 2.5 13 Sudoeste 23 Sudoeste 0 -- -- 80
2018-01-11 22:00:00 2.8 13 Sudoeste 39 Sudoeste 0 -- -- 76
2018-01-11 21:00:00 2.5 16 Sudoeste 30 Sudoeste 0 -- -- 75
2018-01-11 20:00:00 2.4 10 Sudoeste 21 Sudoeste 0 -- -- 75
2018-01-11 19:00:00 3.3 9 Sudoeste 28 Sudoeste 0 -- -- 73
2018-01-11 18:00:00 3.6 22 Sudoeste 35 Sudoeste 0 -- -- 71
2018-01-11 17:00:00 4.8 18 Sudoeste 35 Oeste 0 -- -- 67
2018-01-11 16:00:00 4.9 23 Sudoeste 39 Sudoeste 0 -- -- 66
2018-01-11 15:00:00 4.9 26 Sudoeste 43 Sudoeste 0 -- -- 70
2018-01-11 14:00:00 4.1 25 Sudoeste 39 Sudoeste 0 -- -- 73
2018-01-11 13:00:00 3.9 24 Sudoeste 40 Sudoeste 0 -- -- 72
2018-01-11 12:00:00 3.2 25 Sudoeste 41 Oeste 0 -- -- 75
2018-01-11 11:00:00 2.9 19 Sudoeste 36 Sudoeste 0 -- -- 76
2018-01-11 10:00:00 2.4 17 Oeste 26 Oeste 0 -- -- 78
2018-01-11 09:00:00 1.8 17 Sudoeste 38 Sudoeste 0 -- -- 79
2018-01-11 08:00:00 2.1 27 Sudoeste 54 Sudoeste 0 -- -- 78
2018-01-11 07:00:00 2.4 27 Sudoeste 41 Sudoeste 0 -- -- 79
2018-01-11 06:00:00 2.6 22 Sudoeste 37 Sudoeste 0 -- -- 79
2018-01-11 05:00:00 2.4 19 Sur 35 Sur 0 -- -- 78
2018-01-11 04:00:00 2.1 10 Sudoeste 27 Sudoeste 0 -- -- 77
2018-01-11 03:00:00 2.3 23 Sudoeste 39 Sudoeste 0 -- -- 75
2018-01-11 02:00:00 1.7 20 Sudoeste 40 Sudoeste 0 -- -- 77
2018-01-11 01:00:00 1.8 23 Sudoeste 33 Sudoeste 0 -- -- 77
2018-01-11 00:00:00 2.3 17 Sudoeste 31 Sudoeste 0 -- -- 76
2018-01-10 23:00:00 2.8 18 Sudoeste 36 Sudoeste 0 -- -- 78
2018-01-10 22:00:00 3.6 27 Sudoeste 47 Sudoeste 0 -- -- 78
2018-01-10 21:00:00 3.9 37 Sudoeste 54 Sudoeste 0 -- -- 80
2018-01-10 20:00:00 4 25 Sudoeste 44 Sudoeste 0 -- -- 82
2018-01-10 19:00:00 4.2 27 Sudoeste 50 Sur 0 -- -- 87
2018-01-10 18:00:00 4.3 32 Sur 52 Sudoeste 0 -- -- 87
2018-01-10 17:00:00 4.3 31 Sur 54 Sudoeste 0 -- -- 89
2018-01-10 16:00:00 4 36 Sudoeste 53 Sur 0 -- -- 88
2018-01-10 15:00:00 4.2 19 Sudoeste 40 Sur 0 -- -- 85
2018-01-10 14:00:00 4.1 16 Sur 40 Sur 0 -- -- 85
2018-01-10 13:00:00 5.3 26 Sur 37 Sur 0 -- -- 81
2018-01-10 12:00:00 5.3 18 Sudoeste 31 Sudoeste 0 -- -- 82
2018-01-10 11:00:00 3.4 20 Sudoeste 30 Sudoeste 0 -- -- 88
2018-01-10 10:00:00 2.9 22 Sur 28 Sur 0 -- -- 90
2018-01-10 09:00:00 2.3 14 Sur 21 Sur 0 -- -- 91
2018-01-10 08:00:00 2.3 9 Sudoeste 17 Sudoeste 0 -- -- 91
2018-01-10 07:00:00 2.1 10 Sudoeste 21 Sudoeste 0 -- -- 92
2018-01-10 06:00:00 2.4 17 Sudoeste 30 Sudoeste 0 -- -- 91
2018-01-10 05:00:00 2.3 17 Sudoeste 27 Sudoeste 0 -- -- 91
2018-01-10 04:00:00 2.4 20 Sudoeste 27 Sur 0 -- -- 89
2018-01-10 03:00:00 2.3 21 Sudoeste 33 Sudoeste 0 -- -- 88
2018-01-10 02:00:00 2.3 21 Sudoeste 31 Sur 0 -- -- 88
2018-01-10 01:00:00 2.3 14 Sudoeste 30 Sudoeste 0 -- -- 87
2018-01-10 00:00:00 2.2 14 Sudoeste 26 Sudoeste 0 -- -- 87
2018-01-09 23:00:00 2.3 13 Oeste 35 Sur 0 -- -- 85
2018-01-09 22:00:00 2.2 12 Sudoeste 36 Sudoeste 0 -- -- 86
2018-01-09 21:00:00 2.4 26 Sudoeste 59 Sur 0 -- -- 84
2018-01-09 20:00:00 2.3 23 Sudoeste 44 Sur 0 -- -- 84
2018-01-09 19:00:00 2.3 21 Sudoeste 41 Sudoeste 0 -- -- 83
2018-01-09 18:00:00 2.2 14 Sudoeste 35 Sur 0 -- -- 83
2018-01-09 17:00:00 2.2 19 Sur 38 Sur 0 -- -- 83
2018-01-09 16:00:00 2.4 32 Sur 48 Sur 0 -- -- 81
2018-01-09 15:00:00 2.4 32 Sur 54 Sur 0 -- -- 80
2018-01-09 14:00:00 2.3 27 Sur 44 Sudoeste 0 -- -- 80
2018-01-09 13:00:00 2 28 Sudoeste 45 Sur 0 -- -- 82
2018-01-09 12:00:00 2.1 24 Sudoeste 48 Sudoeste 0 -- -- 81
2018-01-09 11:00:00 1.1 24 Sudoeste 35 Sudoeste 0 -- -- 85
2018-01-09 10:00:00 -0.4 16 Sur 24 Sudoeste 0 -- -- 91
2018-01-09 09:00:00 -2.8 7 Sudoeste 14 Sudoeste 0 -- -- 91
2018-01-09 08:00:00 -4.6 6 Sudoeste 17 Oeste 0 -- -- 89
2018-01-09 07:00:00 -4.9 8 Oeste 14 Oeste 0 -- -- 87
2018-01-09 06:00:00 -5.2 11 Sudoeste 18 Sudoeste 0 -- -- 86
2018-01-09 05:00:00 -4.9 13 Oeste 19 Sudoeste 0 -- -- 85
2018-01-09 04:00:00 -5.7 7 Sudoeste 14 Sudoeste 0 -- -- 83
2018-01-09 03:00:00 -5 10 Sudoeste 13 Sudoeste 0 -- -- 82
2018-01-09 02:00:00 -4.6 8 Oeste 13 Oeste 0 -- -- 82
2018-01-09 01:00:00 -3.8 9 Oeste 17 Oeste 0 -- -- 81
2018-01-09 00:00:00 -3.6 12 Sudoeste 19 Oeste 0 -- -- 79
2018-01-08 23:00:00 -3.6 8 Sudoeste 15 Sudoeste 0 -- -- 80
2018-01-08 22:00:00 -2.8 16 Sudoeste 22 Sudoeste 0 -- -- 79
2018-01-08 21:00:00 -2.6 14 Sudoeste 19 Oeste 0 -- -- 80
2018-01-08 20:00:00 -2.2 13 Sudoeste 25 Sudoeste 0 -- -- 79
2018-01-08 19:00:00 -1.4 16 Sudoeste 21 Sudoeste 0.2 -- -- 79
2018-01-08 18:00:00 -0.8 15 Oeste 19 Sudoeste 0 -- -- 79
2018-01-08 17:00:00 1 11 Sudoeste 19 Oeste 0 -- -- 79
2018-01-08 16:00:00 2 7 Oeste 14 Sudoeste 0.6 -- -- 78
2018-01-08 15:00:00 1.3 10 Oeste 14 Oeste 0.6 -- -- 81
2018-01-08 14:00:00 0.7 9 Oeste 13 Oeste 0.8 -- -- 82
2018-01-08 13:00:00 -0.5 11 Oeste 16 Oeste 0.6 -- -- 83
2018-01-08 12:00:00 -1.9 10 Sudoeste 16 Sudoeste 0 -- -- 85
2018-01-08 11:00:00 -3.9 14 Sudoeste 18 Oeste 0.2 -- -- 88
2018-01-08 10:00:00 -5.6 13 Sudoeste 19 Sudoeste 0 -- -- 89
2018-01-08 09:00:00 -7 12 Sudoeste 15 Sudoeste 0 -- -- 91
2018-01-08 08:00:00 -7.1 12 Sudoeste 17 Sudoeste 0 -- -- 91
2018-01-08 07:00:00 -6.6 10 Sudoeste 16 Sudoeste 0 -- -- 91
2018-01-08 06:00:00 -6.2 11 Sudoeste 22 Sudoeste 0 -- -- 90
2018-01-08 05:00:00 -5.6 10 Sudoeste 16 Sudoeste 0 -- -- 91
2018-01-08 04:00:00 -5.3 11 Sudoeste 18 Sudoeste 0 -- -- 91
2018-01-08 03:00:00 -4.8 12 Sudoeste 18 Sudoeste 0 -- -- 94
2018-01-08 02:00:00 -4.2 13 Sudoeste 19 Sudoeste 0 -- -- 91
2018-01-08 01:00:00 -4 11 Sudoeste 17 Sudoeste 0 -- -- 89
2018-01-08 00:00:00 -4.2 7 Sudoeste 12 Sudoeste 0 -- -- 89
2018-01-07 23:00:00 -3.7 8 Sudoeste 12 Sudoeste 0 -- -- 89
2018-01-07 22:00:00 -1.8 2 Sudoeste 8 Sudoeste 0 -- -- 85
2018-01-07 21:00:00 -0.5 0 Calma 11 Sur 0 -- -- 85
2018-01-07 20:00:00 0.5 6 Sudoeste 13 Sudoeste 0 -- -- 88
2018-01-07 19:00:00 1 4 Sudoeste 12 Oeste 0.2 -- -- 93
2018-01-07 18:00:00 1 3 Sudoeste 8 Oeste 0.2 -- -- 94
2018-01-07 17:00:00 1.9 4 Sudoeste 8 Sudoeste 1.2 -- -- 92
2018-01-07 16:00:00 3.1 3 Noroeste 8 Norte 3 -- -- 90
2018-01-07 15:00:00 2.8 2 Norte 8 Nordeste 2.8 -- -- 93
2018-01-07 14:00:00 2.9 0 Calma 8 Nordeste 3.8 -- -- 92
2018-01-07 13:00:00 2.4 2 Sur 8 Nordeste 3 -- -- 97
2018-01-07 12:00:00 1.6 2 Este 5 Este 2.4 -- -- 97
2018-01-07 11:00:00 0.8 0 Calma -- -- 0.8 -- -- 98
2018-01-07 10:00:00 0.4 0 Calma -- -- 0.4 -- -- 98
2018-01-07 09:00:00 0.1 0 Calma -- -- 0 -- -- 97
2018-01-07 08:00:00 0.1 0 Calma -- -- 0 -- -- 97
2018-01-07 07:00:00 0.2 0 Calma -- -- 0 -- -- 97
2018-01-07 06:00:00 0.2 0 Calma -- -- 0.2 -- -- 97
2018-01-07 05:00:00 0 0 Calma -- -- 0 -- -- 97
2018-01-07 04:00:00 0.1 0 Calma -- -- 0 -- -- 98
2018-01-07 03:00:00 0 0 Calma -- -- 0 -- -- 97
2018-01-07 02:00:00 -0.1 0 Calma -- -- 0.2 -- -- 97
2018-01-07 01:00:00 0 0 Calma -- -- 0 -- -- 97
2018-01-07 00:00:00 0.1 0 Calma -- -- 0.2 -- -- 97
2018-01-06 23:00:00 0.2 0 Calma -- -- 0.2 -- -- 97
2018-01-06 22:00:00 0.3 0 Calma -- -- 0.4 -- -- 96
2018-01-06 21:00:00 0.4 0 Calma -- -- 0.2 -- -- 96
2018-01-06 20:00:00 0.3 0 Calma -- -- 0.4 -- -- 96
2018-01-06 19:00:00 0.3 0 Calma 15 Noroeste 0.4 -- -- 96
2018-01-06 18:00:00 0.5 7 Noroeste 16 Norte 0.4 -- -- 95
2018-01-06 17:00:00 0.8 7 Norte 17 Norte 1.4 -- -- 96
2018-01-06 16:00:00 0.8 4 Noroeste 13 Noroeste 0.8 -- -- 96
2018-01-06 15:00:00 0.6 0 Calma 4 Sur 0.6 -- -- 96
2018-01-06 14:00:00 0.9 0 Calma 4 Este 1 -- -- 95
2018-01-06 13:00:00 0.9 2 Este 9 Nordeste 0 -- -- 95
2018-01-06 12:00:00 0.9 2 Nordeste 6 Noroeste 0 -- -- 95
2018-01-06 11:00:00 0.6 0 Calma 5 Oeste 0 -- -- 94
2018-01-06 10:00:00 1.3 0 Calma 12 Norte 1.2 -- -- 93
2018-01-06 09:00:00 2.2 4 Norte 11 Noroeste 0.6 -- -- 93
2018-01-06 08:00:00 2.2 3 Noroeste 7 Noroeste 0.2 -- -- 91
2018-01-06 07:00:00 2.3 5 Sudoeste 14 Oeste 0.2 -- -- 92
2018-01-06 06:00:00 2.6 5 Sudoeste 17 Sudoeste 0.4 -- -- 93
2018-01-06 05:00:00 2.4 13 Sudoeste 29 Sudoeste 0.6 -- -- 93
2018-01-06 04:00:00 2.4 18 Sudoeste 26 Sudoeste 1.2 -- -- 93
2018-01-06 03:00:00 2.2 15 Sudoeste 23 Sudoeste 2.8 -- -- 92
2018-01-06 02:00:00 3.4 12 Sudoeste 35 Sudoeste 2.8 -- -- 91
2018-01-06 01:00:00 7.2 13 Sur 22 Sur 1.2 -- -- 88
2018-01-06 00:00:00 7.3 6 Sur 26 Sur 0.4 -- -- 88
2018-01-05 23:00:00 7.1 5 Sur 15 Sur 0.4 -- -- 90
2018-01-05 22:00:00 7.3 8 Sur 26 Sur 0.2 -- -- 87
2018-01-05 21:00:00 7.2 10 Sur 21 Sur 0 -- -- 89
2018-01-05 20:00:00 7.3 10 Sur 45 Sur 0 -- -- 87
2018-01-05 19:00:00 8 29 Sur 44 Sur 0 -- -- 81
2018-01-05 18:00:00 8.4 13 Sur 31 Sur 0 -- -- 79
2018-01-05 17:00:00 9.1 15 Sur 34 Sudoeste 0 -- -- 74
2018-01-05 16:00:00 9.1 26 Sur 37 Sudoeste 0 -- -- 72
2018-01-05 15:00:00 9 20 Sur 36 Sur 0 -- -- 74
2018-01-05 14:00:00 9.5 26 Sur 60 Sur 0 -- -- 71
2018-01-05 13:00:00 10.6 37 Sur 64 Sur 0 -- -- 66
2018-01-05 12:00:00 10 33 Sur 63 Sur 0 -- -- 68
2018-01-05 11:00:00 8.9 39 Sudoeste 61 Sudoeste 0 -- -- 69
2018-01-05 10:00:00 8.2 33 Sudoeste 51 Sur 0 -- -- 73
2018-01-05 09:00:00 8.1 25 Sudoeste 45 Sudoeste 0 -- -- 75
2018-01-05 08:00:00 8.2 27 Sur 54 Sur 0 -- -- 75
2018-01-05 07:00:00 8.1 36 Sudoeste 60 Sudoeste 0 -- -- 76
2018-01-05 06:00:00 8.4 23 Sur 42 Sur 0 -- -- 78
2018-01-05 05:00:00 8.4 24 Sudoeste 49 Sudoeste 0 -- -- 83
2018-01-05 04:00:00 8.9 27 Sudoeste 43 Sur 0 -- -- 78
2018-01-05 03:00:00 8.5 26 Sudoeste 45 Sur 0 -- -- 81
2018-01-05 02:00:00 7.8 21 Sur 33 Sudoeste 0 -- -- 86
2018-01-05 01:00:00 7.7 19 Sudoeste 36 Sur 0 -- -- 84
2018-01-05 00:00:00 8.4 16 Sudoeste 35 Sur 0 -- -- 82
2018-01-04 23:00:00 9.1 20 Sur 34 Sur 0 -- -- 81
2018-01-04 22:00:00 9.2 19 Sur 30 Sudoeste 0 -- -- 81
2018-01-04 21:00:00 9.5 18 Sur 35 Sudoeste 0 -- -- 82
2018-01-04 20:00:00 9.5 14 Sudoeste 28 Sudoeste 0 -- -- 82
2018-01-04 19:00:00 10 20 Sudoeste 31 Sudoeste 0 -- -- 79
2018-01-04 18:00:00 10.6 24 Sudoeste 36 Sudoeste 0 -- -- 75
2018-01-04 17:00:00 11.2 20 Sudoeste 38 Sudoeste 0 -- -- 72
2018-01-04 16:00:00 12.4 22 Sur 37 Sur 0 -- -- 67
2018-01-04 15:00:00 12.3 23 Sudoeste 37 Sur 0 -- -- 68
2018-01-04 14:00:00 12.1 28 Sur 46 Sur 0 -- -- 68
2018-01-04 13:00:00 11.6 27 Sur 40 Sur 0 -- -- 70
2018-01-04 12:00:00 10.9 22 Sur 32 Sur 0 -- -- 74
2018-01-04 11:00:00 10.4 20 Sur 32 Sur 0 -- -- 78
2018-01-04 10:00:00 9.9 17 Sur 28 Sur 0 -- -- 79
2018-01-04 09:00:00 8.9 15 Sur 28 Sudoeste 0 -- -- 84
2018-01-04 08:00:00 9.4 17 Sudoeste 28 Sur 0 -- -- 82
2018-01-04 07:00:00 9.5 15 Sur 30 Sur 0 -- -- 83
2018-01-04 06:00:00 9.8 15 Sur 29 Sur 0 -- -- 83
2018-01-04 05:00:00 10 6 Sudoeste 17 Sur 0 -- -- 83
2018-01-04 04:00:00 10.2 9 Sudoeste 22 Sudoeste 0 -- -- 84
2018-01-04 03:00:00 10.3 14 Sudoeste 27 Sudoeste 0 -- -- 83
2018-01-04 02:00:00 10.6 14 Sur 26 Sudoeste 0 -- -- 82
2018-01-04 01:00:00 10.7 19 Sur 38 Sudoeste 0 -- -- 83
2018-01-04 00:00:00 11.6 28 Sudoeste 53 Sudoeste 0 -- -- 79
2018-01-03 23:00:00 11.9 36 Sudoeste 51 Sudoeste 0 -- -- 80
2018-01-03 22:00:00 11.2 29 Sudoeste 37 Sudoeste 0 -- -- 82
2018-01-03 21:00:00 10.6 24 Sudoeste 36 Sudoeste 0 -- -- 85
2018-01-03 20:00:00 11 27 Sudoeste 40 Sudoeste 0 -- -- 82
2018-01-03 19:00:00 10.2 19 Sudoeste 33 Sudoeste 0 -- -- 85
2018-01-03 18:00:00 11.2 23 Sudoeste 45 Sudoeste 0 -- -- 81
2018-01-03 17:00:00 12.1 22 Sudoeste 34 Sudoeste 0 -- -- 78
2018-01-03 16:00:00 13.5 20 Sur 38 Sudoeste 0 -- -- 72
2018-01-03 15:00:00 12.8 24 Sudoeste 35 Sudoeste 0 -- -- 74
2018-01-03 14:00:00 13.4 20 Sur 36 Sur 0 -- -- 72
2018-01-03 13:00:00 11.7 22 Sur 38 Sur 0 -- -- 77
2018-01-03 12:00:00 11 19 Sudoeste 32 Sur 0 -- -- 80
2018-01-03 11:00:00 10.5 26 Sudoeste 37 Sur 0 -- -- 80
2018-01-03 10:00:00 9 23 Sudoeste 34 Sur 0 -- -- 86
2018-01-03 09:00:00 8.2 13 Sudoeste 22 Sur 0 -- -- 88
2018-01-03 08:00:00 8.2 8 Sudoeste 26 Sudoeste 0 -- -- 87
2018-01-03 07:00:00 9.1 19 Sur 30 Sur 0 -- -- 84
2018-01-03 06:00:00 9 17 Sudoeste 26 Sudoeste 0 -- -- 84
2018-01-03 05:00:00 8 19 Sur 31 Sur 0 -- -- 88
2018-01-03 04:00:00 8.5 9 Sudoeste 32 Sudoeste 0 -- -- 85
2018-01-03 03:00:00 8.5 19 Sudoeste 35 Sudoeste 0 -- -- 84
2018-01-03 02:00:00 9.4 22 Sur 29 Sur 0 -- -- 81
2018-01-03 01:00:00 9.6 17 Sur 38 Sudoeste 0 -- -- 79
2018-01-03 00:00:00 10.6 22 Sudoeste 32 Sur 0 -- -- 77
2018-01-02 23:00:00 9.9 13 Sur 24 Sudoeste 0 -- -- 78
2018-01-02 22:00:00 10 15 Sudoeste 24 Sur 0 -- -- 77
2018-01-02 21:00:00 10.2 15 Sudoeste 26 Sur 0 -- -- 75
2018-01-02 20:00:00 10.9 20 Sudoeste 31 Sudoeste 0 -- -- 73
2018-01-02 19:00:00 10.6 9 Sudoeste 28 Sudoeste 0 -- -- 74
2018-01-02 18:00:00 10.9 22 Sudoeste 32 Sudoeste 0 -- -- 71
2018-01-02 17:00:00 11.2 27 Sudoeste 44 Sudoeste 0 -- -- 72
2018-01-02 16:00:00 11.5 31 Sudoeste 48 Sudoeste 0 -- -- 70
2018-01-02 15:00:00 12 33 Sudoeste 58 Sudoeste 0 -- -- 68
2018-01-02 14:00:00 11.8 33 Sudoeste 56 Sudoeste 0 -- -- 67
2018-01-02 13:00:00 11.5 40 Sudoeste 69 Sudoeste 0 -- -- 67
2018-01-02 12:00:00 9.9 53 Sudoeste 70 Sudoeste 0 -- -- 72
2018-01-02 11:00:00 9.4 42 Oeste 66 Sudoeste 0 -- -- 71
2018-01-02 10:00:00 7.9 23 Oeste 50 Sudoeste 0 -- -- 76
2018-01-02 09:00:00 6.9 24 Sudoeste 35 Sudoeste 0 -- -- 76
2018-01-02 08:00:00 7.1 24 Sudoeste 53 Sudoeste 0 -- -- 76
2018-01-02 07:00:00 7.6 39 Sudoeste 51 Sudoeste 0 -- -- 74
2018-01-02 06:00:00 7.5 26 Sudoeste 47 Sudoeste 0 -- -- 76
2018-01-02 05:00:00 7.6 33 Sudoeste 49 Sudoeste 0 -- -- 75
2018-01-02 04:00:00 7.5 32 Sudoeste 42 Sudoeste 0 -- -- 79
2018-01-02 03:00:00 7.2 13 Sudoeste 27 Sudoeste 0 -- -- 88
2018-01-02 02:00:00 7.5 12 Sur 21 Sudoeste 0 -- -- 80
2018-01-02 01:00:00 7.6 13 Sur 24 Sur 0 -- -- 78
2018-01-02 00:00:00 8.3 19 Sur 34 Sur 0 -- -- 74
2018-01-01 23:00:00 8.2 16 Sur 27 Sur 0 -- -- 75
2018-01-01 22:00:00 8.1 18 Sur 26 Sur 0 -- -- 73
2018-01-01 21:00:00 9.2 19 Sudoeste 37 Sur 0 -- -- 68
2018-01-01 20:00:00 9.5 26 Sudoeste 36 Sur 0 -- -- 66
2018-01-01 19:00:00 9.4 25 Sudoeste 43 Sur 0 -- -- 64
2018-01-01 18:00:00 9.5 33 Sudoeste 62 Sudoeste 0 -- -- 63
2018-01-01 17:00:00 9.1 34 Sudoeste 54 Sudoeste 0 -- -- 61
2018-01-01 16:00:00 9.1 32 Sudoeste 53 Sur 0 -- -- 58
2018-01-01 15:00:00 10.4 28 Sur 50 Sur 0 -- -- 51
2018-01-01 14:00:00 8.3 35 Sudoeste 54 Sudoeste 0 -- -- 51
2018-01-01 13:00:00 8 27 Sudoeste 44 Sudoeste 0 -- -- 54
2018-01-01 12:00:00 6.8 26 Sudoeste 38 Sudoeste 0 -- -- 58
2018-01-01 11:00:00 5.2 17 Sudoeste 29 Sudoeste 0 -- -- 63
2018-01-01 10:00:00 2.6 13 Sudoeste 22 Oeste 0 -- -- 71
2018-01-01 09:00:00 1 6 Oeste 16 Oeste 0 -- -- 79
2018-01-01 08:00:00 1.4 9 Sudoeste 23 Sudoeste 0 -- -- 76
2018-01-01 07:00:00 1.6 12 Sudoeste 18 Sudoeste 0 -- -- 75
2018-01-01 06:00:00 2 10 Sudoeste 19 Sudoeste 0 -- -- 74
2018-01-01 05:00:00 1.6 8 Sudoeste 21 Sudoeste 0 -- -- 78
2018-01-01 04:00:00 2.8 12 Sudoeste 30 Sudoeste 0 -- -- 73
2018-01-01 03:00:00 3 21 Sudoeste 36 Sudoeste 0 -- -- 73
2018-01-01 02:00:00 3.3 18 Sudoeste 37 Sudoeste 0 -- -- 71
2018-01-01 01:00:00 3.5 28 Sudoeste 41 Sudoeste 0 -- -- 69
2018-01-01 00:00:00 3.3 27 Sudoeste 44 Sudoeste 0 -- -- 72
2017-12-31 23:00:00 3.5 30 Sudoeste 51 Sudoeste 0 -- -- 73
2017-12-31 22:00:00 4.8 25 Sudoeste 55 Sudoeste 0 -- -- 75
2017-12-31 21:00:00 5.9 30 Sudoeste 45 Sudoeste 0 -- -- 80
2017-12-31 20:00:00 5.9 26 Sudoeste 44 Sudoeste 0 -- -- 83
2017-12-31 19:00:00 5.9 24 Sudoeste 81 Sudoeste 1.8 -- -- 84
2017-12-31 18:00:00 8.7 26 Sudoeste 54 Sur 0 -- -- 78
2017-12-31 17:00:00 9 35 Sur 56 Sudoeste 0 -- -- 73
2017-12-31 16:00:00 9.2 30 Sudoeste 52 Sudoeste 0 -- -- 71
2017-12-31 15:00:00 9.5 38 Sudoeste 68 Sudoeste 0 -- -- 68
2017-12-31 14:00:00 11 42 Sudoeste 63 Sudoeste 0 -- -- 64
2017-12-31 13:00:00 10.8 30 Sudoeste 53 Sudoeste 0 -- -- 66
2017-12-31 12:00:00 9.7 27 Sudoeste 53 Sudoeste 0 -- -- 73
2017-12-31 11:00:00 8.8 22 Sudoeste 38 Sudoeste 0 -- -- 73
2017-12-31 10:00:00 8.6 13 Sur 31 Sudoeste 0 -- -- 74
2017-12-31 09:00:00 8.4 12 Sudoeste 40 Sudoeste 0 -- -- 75
2017-12-31 08:00:00 8.4 20 Sudoeste 45 Sudoeste 0 -- -- 75
2017-12-31 07:00:00 8.3 25 Sudoeste 49 Sudoeste 0 -- -- 76
2017-12-31 06:00:00 8.5 31 Sudoeste 45 Sur 0 -- -- 78
2017-12-31 05:00:00 9 23 Sudoeste 44 Sudoeste 0 -- -- 77
2017-12-31 04:00:00 9.1 24 Sudoeste 39 Sur 0 -- -- 79
2017-12-31 03:00:00 9.1 15 Sudoeste 31 Sur 0 -- -- 81
2017-12-31 02:00:00 9.1 15 Sur 25 Sur 0 -- -- 82
2017-12-31 01:00:00 9.1 8 Sudoeste 22 Sudoeste 0 -- -- 82